< < Back
Terminal Aerodrome Forecast


Current Version              Previous Versions:   1  2  3  4  5  6  7  8  9  

Terminal Aerodrome Forecast

082
FTUS44 KMRX 161725
TAFCHA
TAF
KCHA 161725Z 1618/1718 33006KT P6SM BKN040
     FM162000 35005KT P6SM BKN050
     FM170200 36003KT P6SM SCT030 BKN250
     FM170800 01003KT 5SM BR BKN020
     FM171400 01006KT P6SM SCT020=



Latest METAR

690
SAUS80 KWBC 170900 RRB
MTRCHA
METAR KCHA 170853Z 32005KT 10SM CLR 18/16 A3001 RMK AO2 SLP155 T01830156
56005


USA.gov is the U.S. government's official web portal to all federal, state and local government web resources and services.